Time;durP1;ratioP1;P1;durP2;ratioP2;P2;SDS_P1;SDS_P2;PMS_P1;PMS_P2;Temp;Humidity;BMP_temperature;BMP_pressure;BME280_temperature;BME280_humidity;BME280_pressure;Samples;Min_cycle;Max_cycle;Signal;HPM_P1;HPM_P2
2021/12/05 00:22:13;;;;;;;34.10;15.73;;;;;;;3.44;67.19;100029.34;4994556;28;20137;-51
2021/12/05 00:24:43;;;;;;;28.55;14.98;;;;;;;3.45;67.35;100030.97;4995204;28;20029;-51
2021/12/05 00:27:20;;;;;;;27.35;14.10;;;;;;;3.43;67.06;100019.78;4995673;28;20148;-51
2021/12/05 00:45:48;;;;;;;31.52;15.82;;;;;;;3.20;67.72;100034.44;4997955;28;20029;-52
2021/12/05 01:04:04;;;;;;;31.52;14.85;;;;;;;3.22;67.97;100069.44;4998946;28;20170;-53
2021/12/05 01:16:45;;;;;;;34.38;16.80;;;;;;;3.02;68.87;100084.66;4996723;28;20097;-52
2021/12/05 01:19:15;;;;;;;35.03;16.52;;;;;;;3.01;69.09;100086.50;4995102;28;20029;-51
2021/12/05 01:21:43;;;;;;;34.17;17.45;;;;;;;3.01;68.64;100078.56;4994975;28;20026;-54
2021/12/05 01:24:22;;;;;;;33.28;16.40;;;;;;;3.01;68.91;100080.41;4996273;28;20030;-52
2021/12/05 01:27:12;;;;;;;34.30;17.85;;;;;;;3.08;68.55;100083.81;4995037;28;20448;-52
2021/12/05 01:29:48;;;;;;;30.48;16.55;;;;;;;3.12;68.71;100090.28;4994798;28;20477;-53
2021/12/05 01:35:17;;;;;;;34.40;16.38;;;;;;;3.20;68.26;100097.97;4995912;28;20095;-52
2021/12/05 01:56:13;;;;;;;34.80;18.13;;;;;;;3.07;69.29;100100.72;5028827;28;20094;-87
2021/12/05 02:36:26;;;;;;;33.08;17.65;;;;;;;3.14;70.41;100098.84;5002867;28;20042;-85
2021/12/05 02:41:35;;;;;;;34.72;17.65;;;;;;;3.08;70.85;100102.34;5016474;28;20029;-85
2021/12/05 02:44:06;;;;;;;36.87;18.03;;;;;;;3.07;70.85;100113.16;5002747;28;20034;-85
2021/12/05 02:46:32;;;;;;;39.45;18.15;;;;;;;3.03;70.52;100112.75;5014338;28;20045;-84
2021/12/05 02:49:02;;;;;;;37.80;18.13;;;;;;;3.01;71.03;100114.78;5017079;28;20057;-85
2021/12/05 02:51:29;;;;;;;37.15;18.45;;;;;;;3.04;71.05;100111.72;5022268;28;20087;-84
2021/12/05 02:54:05;;;;;;;39.50;19.63;;;;;;;3.06;71.08;100116.81;5015284;28;20037;-84
2021/12/05 02:56:34;;;;;;;36.35;18.98;;;;;;;3.06;71.21;100125.56;5020665;28;20579;-84
2021/12/05 02:59:08;;;;;;;35.47;18.63;;;;;;;3.06;71.60;100117.63;5018975;28;20586;-85
2021/12/05 03:01:42;;;;;;;37.60;18.53;;;;;;;3.06;71.32;100111.53;5020321;28;20030;-85
2021/12/05 03:04:09;;;;;;;36.25;17.95;;;;;;;3.03;71.54;100107.44;5024295;28;20105;-84
2021/12/05 03:06:36;;;;;;;38.13;19.17;;;;;;;2.97;71.80;100108.31;5023746;28;20040;-84
2021/12/05 03:09:08;;;;;;;34.78;17.98;;;;;;;2.90;72.11;100110.22;5013615;28;20022;-85
2021/12/05 03:11:33;;;;;;;36.22;18.20;;;;;;;2.86;72.15;100120.38;5017723;28;20025;-84
2021/12/05 03:13:59;;;;;;;38.28;17.95;;;;;;;2.83;72.23;100122.66;5022793;28;20033;-84
2021/12/05 03:16:26;;;;;;;37.05;17.85;;;;;;;2.86;72.34;100116.91;5019895;28;20129;-84
2021/12/05 03:18:53;;;;;;;35.20;18.48;;;;;;;2.87;72.35;100123.84;5013309;28;20063;-84
2021/12/05 03:21:18;;;;;;;34.25;17.25;;;;;;;2.89;72.12;100122.63;5014812;28;20034;-84
2021/12/05 03:23:47;;;;;;;39.13;17.52;;;;;;;2.89;72.38;100127.09;5014586;28;20095;-84
2021/12/05 03:26:16;;;;;;;35.42;18.75;;;;;;;2.87;72.42;100134.41;5017690;28;20113;-85
2021/12/05 03:28:42;;;;;;;39.00;17.70;;;;;;;2.87;72.86;100145.00;5015477;28;20376;-84
2021/12/05 03:31:09;;;;;;;36.85;18.60;;;;;;;2.83;72.72;100136.69;5017091;28;20022;-87
2021/12/05 03:33:36;;;;;;;36.08;17.27;;;;;;;2.79;72.96;100137.31;5012975;28;20036;-86
2021/12/05 03:36:05;;;;;;;39.30;18.15;;;;;;;2.75;73.00;100141.44;5022324;28;20505;-86
2021/12/05 03:38:31;;;;;;;35.83;18.75;;;;;;;2.72;73.10;100134.72;5019362;28;20391;-86
2021/12/05 03:40:57;;;;;;;37.10;17.45;;;;;;;2.66;73.28;100128.44;5016840;28;20185;-85
2021/12/05 03:43:23;;;;;;;37.67;17.30;;;;;;;2.63;73.32;100139.44;5029572;28;20040;-84
2021/12/05 03:45:52;;;;;;;38.72;17.42;;;;;;;2.59;73.76;100143.53;5018729;28;20045;-84
2021/12/05 03:48:19;;;;;;;36.60;18.67;;;;;;;2.63;73.60;100123.56;5022045;28;20112;-86
2021/12/05 03:50:46;;;;;;;41.42;18.95;;;;;;;2.57;73.80;100134.19;5021842;28;20064;-85
2021/12/05 03:53:12;;;;;;;36.80;17.63;;;;;;;2.54;74.29;100140.72;5025315;28;20555;-85
2021/12/05 03:55:40;;;;;;;35.53;18.60;;;;;;;2.54;74.29;100151.28;5018669;28;20030;-85
2021/12/05 03:58:06;;;;;;;37.85;18.58;;;;;;;2.52;74.88;100161.28;5017894;28;20095;-84
2021/12/05 04:00:36;;;;;;;38.58;18.92;;;;;;;2.53;74.31;100164.72;5022792;28;20040;-85
2021/12/05 04:03:05;;;;;;;36.88;17.83;;;;;;;2.54;73.99;100161.88;5015268;28;20116;-85
2021/12/05 04:05:34;;;;;;;39.42;18.20;;;;;;;2.57;74.46;100172.03;5021603;28;20395;-85
2021/12/05 04:08:00;;;;;;;37.78;18.17;;;;;;;2.59;74.49;100174.47;5022988;28;20018;-84
2021/12/05 04:10:28;;;;;;;41.13;19.95;;;;;;;2.60;74.30;100166.31;5014291;28;20030;-85
2021/12/05 04:12:54;;;;;;;36.17;18.15;;;;;;;2.58;74.75;100165.72;5017654;28;20029;-84
2021/12/05 04:15:21;;;;;;;41.00;18.63;;;;;;;2.62;74.12;100171.38;5019536;28;20029;-85
2021/12/05 04:17:47;;;;;;;36.80;18.75;;;;;;;2.62;74.29;100169.56;5020347;28;20438;-85
2021/12/05 04:20:15;;;;;;;35.72;17.40;;;;;;;2.59;74.37;100169.16;5014869;28;20093;-85
2021/12/05 04:22:42;;;;;;;35.17;19.02;;;;;;;2.57;74.52;100171.22;5016395;28;20032;-85
2021/12/05 04:25:11;;;;;;;39.70;19.00;;;;;;;2.52;74.39;100171.03;5017266;28;20510;-85
2021/12/05 04:27:42;;;;;;;35.58;17.17;;;;;;;2.43;75.00;100173.09;5018567;28;20128;-85
2021/12/05 04:30:10;;;;;;;35.35;17.85;;;;;;;2.41;75.36;100172.47;5016845;28;20025;-85
2021/12/05 04:32:36;;;;;;;37.70;17.92;;;;;;;2.43;75.60;100171.25;5016519;28;20391;-85
2021/12/05 04:35:02;;;;;;;40.88;17.90;;;;;;;2.43;75.89;100168.59;5014671;28;20037;-85
2021/12/05 04:37:28;;;;;;;38.65;17.35;;;;;;;2.48;75.20;100167.97;5019445;28;20235;-85
2021/12/05 04:39:53;;;;;;;37.22;17.67;;;;;;;2.49;75.16;100169.59;5015457;28;20644;-85
2021/12/05 04:42:19;;;;;;;33.28;16.23;;;;;;;2.50;75.28;100176.50;5017914;28;20033;-85
2021/12/05 04:44:45;;;;;;;35.53;17.23;;;;;;;2.48;75.12;100175.91;5012927;28;20308;-85
2021/12/05 04:47:11;;;;;;;36.42;18.27;;;;;;;2.47;74.98;100176.94;5024546;28;20056;-85
2021/12/05 04:49:39;;;;;;;35.40;16.77;;;;;;;2.40;75.85;100176.97;5018363;28;20483;-85
2021/12/05 04:52:07;;;;;;;43.30;20.30;;;;;;;2.38;75.26;100173.72;5016421;28;20022;-85
2021/12/05 04:54:33;;;;;;;35.15;17.77;;;;;;;2.38;75.42;100181.66;5015403;28;20033;-84
2021/12/05 04:56:59;;;;;;;35.45;17.02;;;;;;;2.36;75.91;100182.88;5016645;28;20033;-85
2021/12/05 04:59:27;;;;;;;36.10;18.23;;;;;;;2.38;76.19;100180.84;5015339;28;20033;-85
2021/12/05 05:01:57;;;;;;;38.33;18.08;;;;;;;2.38;75.75;100178.19;5017862;28;20233;-85
2021/12/05 05:04:27;;;;;;;37.67;17.35;;;;;;;2.35;75.44;100178.63;5015476;28;20087;-85
2021/12/05 05:06:59;;;;;;;38.28;17.80;;;;;;;2.26;75.94;100195.72;5024246;28;20384;-85
2021/12/05 05:09:26;;;;;;;35.65;17.70;;;;;;;2.17;76.54;100192.47;5027365;28;20052;-83
2021/12/05 05:11:51;;;;;;;41.25;17.98;;;;;;;2.20;76.39;100200.00;5010016;28;20040;-84
2021/12/05 05:14:17;;;;;;;33.40;18.23;;;;;;;2.17;77.24;100189.03;5014553;28;20026;-84
2021/12/05 05:16:44;;;;;;;36.97;17.35;;;;;;;2.18;77.52;100195.94;5018144;28;20037;-85
2021/12/05 05:19:12;;;;;;;31.33;17.15;;;;;;;2.23;76.65;100211.97;5017316;28;20025;-84
2021/12/05 05:46:19;;;;;;;33.20;17.55;;;;;;;2.20;77.28;100246.75;5026472;28;20725;-85
2021/12/05 05:51:36;;;;;;;38.35;16.90;;;;;;;2.20;77.30;100250.22;5016304;28;20033;-85
2021/12/05 05:54:02;;;;;;;34.45;17.23;;;;;;;2.23;76.89;100254.28;5035811;28;20384;-85
2021/12/05 05:56:29;;;;;;;35.85;16.77;;;;;;;2.16;77.47;100264.06;5025803;28;20026;-84
2021/12/05 05:59:04;;;;;;;36.63;17.20;;;;;;;2.17;77.39;100263.84;5027071;28;20037;-84
2021/12/05 06:04:03;;;;;;;34.80;17.80;;;;;;;2.15;77.28;100273.78;5026563;28;20022;-85
2021/12/05 06:06:30;;;;;;;34.38;17.05;;;;;;;2.21;77.10;100274.81;5023339;28;20029;-84
2021/12/05 06:08:57;;;;;;;32.58;16.98;;;;;;;2.22;77.44;100271.97;5020156;28;20510;-84
2021/12/05 06:11:23;;;;;;;35.30;17.20;;;;;;;2.23;77.31;100275.41;5025527;28;20364;-85
2021/12/05 06:13:49;;;;;;;39.70;18.52;;;;;;;2.25;77.63;100278.66;5038446;28;20020;-85
2021/12/05 06:16:16;;;;;;;31.27;16.52;;;;;;;2.29;77.22;100274.59;5024834;28;20057;-85
2021/12/05 06:18:43;;;;;;;34.97;16.85;;;;;;;2.31;77.26;100283.94;5038408;28;20025;-85
2021/12/05 06:21:09;;;;;;;30.73;16.20;;;;;;;2.33;77.10;100281.09;5020638;28;20026;-84
2021/12/05 06:23:36;;;;;;;34.05;16.30;;;;;;;2.34;76.62;100272.97;5023683;28;20025;-84
2021/12/05 06:26:03;;;;;;;31.30;17.60;;;;;;;2.34;77.06;100278.25;5022604;28;20496;-84
2021/12/05 06:28:41;;;;;;;33.40;17.08;;;;;;;2.35;76.84;100274.59;5022656;28;20026;-84
2021/12/05 06:47:14;;;;;;;30.90;17.13;;;;;;;2.28;77.11;100299.41;5025579;28;20095;-85
2021/12/05 06:49:44;;;;;;;32.35;16.73;;;;;;;2.30;77.18;100297.38;5017619;28;20041;-85
2021/12/05 06:52:10;;;;;;;31.17;16.40;;;;;;;2.26;77.57;100293.50;5019381;28;20064;-85
2021/12/05 06:54:37;;;;;;;34.10;17.40;;;;;;;2.25;77.51;100294.53;5027247;28;20049;-84
2021/12/05 06:57:04;;;;;;;34.92;17.00;;;;;;;2.23;77.43;100296.56;5039382;28;20072;-85
2021/12/05 06:59:30;;;;;;;36.30;18.38;;;;;;;2.22;77.41;100295.75;5018998;28;20056;-85
2021/12/05 07:01:55;;;;;;;37.13;18.30;;;;;;;2.24;77.67;100300.84;5022282;28;20033;-85
2021/12/05 07:07:10;;;;;;;37.88;17.48;;;;;;;2.23;77.53;100312.44;5044892;28;20024;-85
2021/12/05 07:09:36;;;;;;;37.88;18.63;;;;;;;2.26;77.24;100318.13;5030612;28;20037;-85
2021/12/05 07:20:17;;;;;;;35.58;18.83;;;;;;;2.21;77.49;100333.78;5028314;28;20036;-84
2021/12/05 07:25:30;;;;;;;34.17;16.38;;;;;;;2.18;77.73;100328.09;4997164;28;20048;-84
2021/12/05 07:41:54;;;;;;;36.45;16.73;;;;;;;2.09;78.32;100352.06;5024431;28;20133;-84
2021/12/05 07:44:20;;;;;;;36.00;17.25;;;;;;;2.12;78.39;100353.47;5026835;28;20021;-84
2021/12/05 07:46:47;;;;;;;33.05;15.77;;;;;;;2.11;78.21;100344.75;5026382;28;20043;-85
2021/12/05 07:49:14;;;;;;;32.92;17.35;;;;;;;2.17;78.02;100355.53;5029443;28;20018;-85
2021/12/05 07:51:45;;;;;;;35.13;17.45;;;;;;;2.20;78.51;100368.34;5029059;28;20124;-84
2021/12/05 07:54:25;;;;;;;37.45;18.20;;;;;;;2.24;77.97;100377.50;5025240;28;20084;-84
2021/12/05 07:57:05;;;;;;;33.22;17.02;;;;;;;2.23;77.61;100375.88;5029327;28;20025;-85
2021/12/05 07:59:45;;;;;;;39.00;18.40;;;;;;;2.22;77.65;100368.94;5021586;28;20431;-84
2021/12/05 08:16:11;;;;;;;35.33;18.35;;;;;;;2.30;77.67;100392.53;5005202;28;20113;-84
2021/12/05 08:18:36;;;;;;;37.60;18.40;;;;;;;2.35;77.36;100395.41;5040565;23;20124;-56
2021/12/05 08:21:05;;;;;;;37.78;17.83;;;;;;;2.37;77.53;100403.94;5019890;28;20447;-55
2021/12/05 08:23:31;;;;;;;37.53;17.50;;;;;;;2.40;77.44;100403.53;5020436;28;20033;-56
2021/12/05 08:26:15;;;;;;;35.58;19.05;;;;;;;2.43;77.19;100411.06;5016757;28;20026;-56
2021/12/05 08:34:20;;;;;;;39.22;18.05;;;;;;;2.32;77.36;100417.75;5013397;28;20095;-55
2021/12/05 09:23:08;;;;;;;43.05;20.67;;;;;;;2.52;77.13;100491.03;4998210;28;20076;-56
2021/12/05 10:03:06;;;;;;;44.88;21.48;;;;;;;2.70;76.50;100504.47;4997114;28;20045;-55
2021/12/05 10:11:11;;;;;;;44.60;23.05;;;;;;;2.70;76.60;100493.88;4997418;28;20080;-56
2021/12/05 10:13:50;;;;;;;48.47;23.30;;;;;;;2.71;76.47;100496.31;4996451;28;20091;-57
2021/12/05 10:16:27;;;;;;;46.78;22.35;;;;;;;2.76;76.48;100497.53;4992238;28;20027;-57
2021/12/05 10:36:02;;;;;;;50.33;24.80;;;;;;;2.74;76.17;100508.34;4993806;28;20037;-54
2021/12/05 10:38:40;;;;;;;50.25;25.33;;;;;;;2.76;76.28;100503.66;4998868;28;20034;-54
2021/12/05 10:42:14;;;;;;;50.38;25.38;;;;;;;2.79;76.19;100505.88;4996325;28;20025;-55
2021/12/05 10:44:20;;;;;;;49.78;25.98;;;;;;;2.84;76.00;100507.91;4994337;28;20042;-57
2021/12/05 10:46:49;;;;;;;54.95;25.30;;;;;;;2.84;75.89;100502.63;4994752;28;20049;-55
2021/12/05 10:49:16;;;;;;;48.83;24.35;;;;;;;2.84;76.00;100515.84;4996322;28;20069;-56
2021/12/05 10:51:49;;;;;;;57.58;27.25;;;;;;;2.83;76.02;100528.28;4986919;28;20092;-57
2021/12/05 10:54:18;;;;;;;56.60;25.67;;;;;;;2.84;76.02;100521.97;4995864;28;20387;-55
2021/12/05 10:56:49;;;;;;;50.33;25.08;;;;;;;2.81;76.15;100532.94;4995396;28;20039;-55
2021/12/05 10:59:26;;;;;;;53.60;26.15;;;;;;;2.79;76.13;100532.34;4994411;28;20116;-55
2021/12/05 11:01:55;;;;;;;54.45;25.38;;;;;;;2.72;76.55;100537.63;4998722;28;20037;-53
2021/12/05 11:04:24;;;;;;;52.67;24.65;;;;;;;2.69;76.52;100535.41;5013672;28;20079;-55
2021/12/05 11:07:01;;;;;;;54.75;26.80;;;;;;;2.65;76.58;100547.38;4993525;28;20041;-55
2021/12/05 11:09:38;;;;;;;47.58;24.30;;;;;;;2.66;76.79;100545.53;4999182;28;20041;-56
2021/12/05 11:12:15;;;;;;;50.80;25.77;;;;;;;2.67;76.87;100553.28;5001758;28;20499;-54
2021/12/05 11:14:45;;;;;;;54.70;26.08;;;;;;;2.66;76.63;100561.41;5003165;28;20033;-52
2021/12/05 11:17:13;;;;;;;54.25;24.10;;;;;;;2.61;76.95;100567.31;5001992;28;20103;-52
2021/12/05 11:19:48;;;;;;;55.60;25.88;;;;;;;2.53;76.87;100558.75;5004390;28;20089;-54
2021/12/05 11:22:16;;;;;;;50.63;23.67;;;;;;;2.46;77.27;100561.38;5002574;28;20024;-56
2021/12/05 11:24:58;;;;;;;56.97;25.13;;;;;;;2.43;77.51;100562.59;5000167;28;20053;-52
2021/12/05 11:27:37;;;;;;;50.08;25.60;;;;;;;2.47;77.30;100570.13;5000566;28;20022;-56
2021/12/05 11:30:13;;;;;;;50.88;23.92;;;;;;;2.47;77.57;100568.28;5003324;28;20022;-52
2021/12/05 11:32:54;;;;;;;54.85;26.13;;;;;;;2.46;77.42;100571.94;5001559;28;20025;-55
2021/12/05 11:35:31;;;;;;;54.72;24.90;;;;;;;2.53;77.12;100577.28;4999835;28;20263;-55
2021/12/05 11:38:19;;;;;;;52.05;23.60;;;;;;;2.43;77.08;100580.28;5004628;28;20034;-53
2021/12/05 11:40:48;;;;;;;58.05;26.65;;;;;;;2.44;77.70;100579.28;5001227;28;20195;-55
2021/12/05 11:43:22;;;;;;;50.00;24.67;;;;;;;2.43;77.41;100583.75;4996587;28;20116;-53
2021/12/05 11:46:01;;;;;;;51.53;24.92;;;;;;;2.40;77.19;100583.34;5002598;28;20048;-55
2021/12/05 11:48:43;;;;;;;48.92;23.85;;;;;;;2.36;77.59;100588.22;4994676;28;20100;-54
2021/12/05 11:51:23;;;;;;;53.05;24.88;;;;;;;2.40;77.49;100593.91;5001606;28;20388;-56
2021/12/05 11:54:14;;;;;;;54.33;25.05;;;;;;;2.45;77.58;100596.75;4995687;28;20034;-55
2021/12/05 11:56:51;;;;;;;53.92;26.08;;;;;;;2.49;77.51;100595.34;5001702;28;20049;-55
2021/12/05 11:59:24;;;;;;;50.22;23.90;;;;;;;2.53;77.10;100582.56;4995925;28;20108;-55
2021/12/05 12:01:59;;;;;;;51.53;25.83;;;;;;;2.53;77.48;100587.84;5000137;28;20029;-55
2021/12/05 12:04:52;;;;;;;51.00;24.88;;;;;;;2.44;77.29;100587.19;5000145;28;20117;-55
2021/12/05 12:07:32;;;;;;;53.85;25.73;;;;;;;2.40;77.03;100593.91;4996865;28;20036;-54
2021/12/05 12:10:05;;;;;;;59.75;27.58;;;;;;;2.37;77.45;100594.31;5001217;28;20093;-56
2021/12/05 12:12:31;;;;;;;54.60;26.70;;;;;;;2.36;77.71;100597.97;4996885;28;20030;-56
2021/12/05 12:14:56;;;;;;;61.72;29.60;;;;;;;2.37;77.57;100605.69;4998640;28;20391;-54
2021/12/05 12:17:23;;;;;;;55.13;26.98;;;;;;;2.32;77.81;100608.09;5000483;28;20076;-57
2021/12/05 12:19:51;;;;;;;55.65;26.50;;;;;;;2.31;77.72;100616.22;4992017;28;20112;-56
2021/12/05 12:22:20;;;;;;;58.72;28.38;;;;;;;2.33;77.64;100611.56;4998423;28;20535;-57
2021/12/05 12:25:00;;;;;;;61.85;28.13;;;;;;;2.33;77.87;100608.91;4997814;28;20034;-56
2021/12/05 12:27:26;;;;;;;55.92;26.38;;;;;;;2.32;77.62;100610.75;4997345;28;20608;-54
2021/12/05 12:29:52;;;;;;;53.15;27.52;;;;;;;2.33;78.11;100608.91;5000813;28;20108;-56
2021/12/05 12:32:23;;;;;;;53.88;28.38;;;;;;;2.33;78.12;100619.50;4997911;28;20034;-55
2021/12/05 12:34:57;;;;;;;58.88;28.38;;;;;;;2.36;77.96;100609.34;4995955;28;20029;-54
2021/12/05 12:37:23;;;;;;;55.95;27.27;;;;;;;2.38;77.84;100615.25;5000796;28;20032;-57
2021/12/05 12:39:51;;;;;;;59.42;28.35;;;;;;;2.35;77.75;100618.31;5000124;28;20034;-55
2021/12/05 12:42:23;;;;;;;54.38;27.00;;;;;;;2.33;78.00;100615.00;4999190;28;20030;-55
2021/12/05 12:45:18;;;;;;;61.15;28.52;;;;;;;2.34;77.91;100621.97;5001115;28;20033;-53
2021/12/05 12:47:51;;;;;;;53.88;25.08;;;;;;;2.39;77.88;100618.72;4999729;28;20042;-55
2021/12/05 12:50:50;;;;;;;56.50;27.23;;;;;;;2.37;77.63;100610.19;4997268;28;20057;-52
2021/12/05 12:53:18;;;;;;;52.08;25.25;;;;;;;2.35;77.74;100614.84;4994043;28;20103;-56
2021/12/05 12:56:10;;;;;;;51.28;26.40;;;;;;;2.27;78.17;100622.94;5001116;28;20047;-55
2021/12/05 12:58:50;;;;;;;49.92;25.38;;;;;;;2.25;78.28;100620.47;4998549;28;20042;-56
2021/12/05 13:10:04;;;;;;;54.08;27.30;;;;;;;2.21;78.42;100621.91;4997918;28;20207;-55
2021/12/05 13:12:55;;;;;;;56.15;25.77;;;;;;;2.13;78.88;100617.56;4997197;28;20033;-54
2021/12/05 13:15:36;;;;;;;54.95;26.67;;;;;;;2.12;78.40;100623.88;4993375;28;20473;-56
2021/12/05 13:18:07;;;;;;;51.88;26.02;;;;;;;2.16;78.45;100624.31;4997825;28;20034;-52
2021/12/05 13:20:53;;;;;;;55.55;26.45;;;;;;;2.13;78.57;100630.78;4993077;28;20120;-55
2021/12/05 13:23:32;;;;;;;56.45;26.00;;;;;;;2.19;78.47;100625.75;4995421;28;20034;-52
2021/12/05 13:26:06;;;;;;;58.03;26.55;;;;;;;2.17;78.31;100630.44;4998462;28;20034;-54
2021/12/05 13:28:34;;;;;;;55.95;25.60;;;;;;;2.14;78.43;100636.88;4991531;28;20042;-55
2021/12/05 13:31:20;;;;;;;58.10;26.20;;;;;;;2.12;78.46;100636.28;5014195;28;20072;-52
2021/12/05 13:33:46;;;;;;;52.50;25.95;;;;;;;2.11;78.61;100646.03;4991614;28;20463;-54
2021/12/05 13:36:37;;;;;;;64.68;28.00;;;;;;;2.07;78.84;100649.25;4999118;28;20056;-56
2021/12/05 13:39:23;;;;;;;54.28;26.65;;;;;;;2.10;78.96;100657.63;4994435;28;20044;-54
2021/12/05 13:42:06;;;;;;;51.95;26.10;;;;;;;2.04;78.95;100668.97;4996907;28;20026;-53
2021/12/05 13:44:57;;;;;;;53.35;26.88;;;;;;;2.04;78.79;100660.22;4996777;28;20026;-55
2021/12/05 13:47:28;;;;;;;55.67;26.02;;;;;;;2.06;78.97;100661.66;4993191;28;20488;-53
2021/12/05 13:49:55;;;;;;;56.00;27.50;;;;;;;2.03;78.92;100656.78;4993767;28;20030;-53
2021/12/05 13:52:47;;;;;;;52.58;26.48;;;;;;;1.96;78.99;100660.38;5004830;28;20049;-56
2021/12/05 13:55:31;;;;;;;59.17;26.20;;;;;;;1.93;79.27;100671.31;4986919;28;20080;-56
2021/12/05 13:58:15;;;;;;;52.47;26.20;;;;;;;1.94;79.07;100671.13;5015463;28;20056;-51
2021/12/05 14:00:43;;;;;;;55.83;26.37;;;;;;;1.93;79.07;100681.91;4996617;28;20034;-52
2021/12/05 14:03:09;;;;;;;48.35;24.58;;;;;;;1.92;79.00;100678.44;4999417;28;20049;-53
2021/12/05 14:05:35;;;;;;;49.60;24.75;;;;;;;1.89;79.70;100675.38;4991641;28;20488;-52
2021/12/05 14:08:02;;;;;;;53.95;26.10;;;;;;;1.88;79.64;100682.47;5000565;28;20025;-53
2021/12/05 14:10:43;;;;;;;51.20;25.60;;;;;;;1.86;79.63;100692.44;4993894;28;20038;-53
2021/12/05 14:13:10;;;;;;;53.67;25.80;;;;;;;1.77;80.34;100698.84;4997024;28;20097;-52
2021/12/05 14:15:35;;;;;;;55.80;25.52;;;;;;;1.76;80.37;100697.22;4995721;28;20039;-54
2021/12/05 14:18:01;;;;;;;53.30;25.23;;;;;;;1.72;80.52;100711.81;4998945;28;20030;-54
2021/12/05 14:20:27;;;;;;;50.17;25.10;;;;;;;1.74;80.57;100713.25;4994090;28;20077;-53
2021/12/05 14:22:54;;;;;;;51.17;23.48;;;;;;;1.75;80.61;100716.72;4993562;28;20037;-52
2021/12/05 14:25:23;;;;;;;55.22;25.40;;;;;;;1.77;80.59;100725.25;4996079;28;20112;-53
2021/12/05 14:27:50;;;;;;;51.45;25.63;;;;;;;1.74;81.00;100726.47;4996023;28;20227;-55
2021/12/05 14:30:19;;;;;;;50.10;24.30;;;;;;;1.80;80.81;100730.19;4997913;28;20066;-53
2021/12/05 14:32:47;;;;;;;54.20;25.75;;;;;;;1.86;80.79;100736.53;4990406;28;20034;-52
2021/12/05 14:35:17;;;;;;;49.08;24.65;;;;;;;1.88;80.76;100737.97;4997926;28;20022;-55
2021/12/05 14:37:46;;;;;;;49.78;25.20;;;;;;;1.93;80.35;100747.94;4991294;28;20030;-54
2021/12/05 14:40:16;;;;;;;51.05;25.17;;;;;;;1.95;80.19;100748.56;5000637;28;20088;-55
2021/12/05 14:42:45;;;;;;;48.05;24.20;;;;;;;1.98;80.05;100758.78;4994483;28;20586;-52
2021/12/05 14:45:21;;;;;;;51.97;25.55;;;;;;;1.98;80.08;100766.72;4998221;28;20018;-52
2021/12/05 14:47:49;;;;;;;49.80;24.40;;;;;;;1.97;80.11;100768.50;4997276;28;20025;-54
2021/12/05 14:50:30;;;;;;;48.38;24.30;;;;;;;1.93;80.27;100772.53;4998322;28;20034;-54
2021/12/05 14:52:58;;;;;;;51.38;24.13;;;;;;;1.95;80.19;100769.72;5004549;28;20396;-55
2021/12/05 14:55:27;;;;;;;50.65;25.48;;;;;;;1.96;80.31;100777.44;4997565;28;20014;-55
2021/12/05 14:57:57;;;;;;;56.05;26.02;;;;;;;1.99;80.04;100792.13;5001436;28;20528;-54
2021/12/05 15:00:32;;;;;;;52.55;25.33;;;;;;;1.95;80.62;100791.66;4996666;28;20041;-55
2021/12/05 15:03:00;;;;;;;;;;;;;;;1.86;80.64;100792.81;4999452;28;20028;-52
2021/12/05 15:05:26;;;;;;;50.45;23.40;;;;;;;1.92;80.26;100799.16;4994911;28;19921;-54
2021/12/05 15:08:04;;;;;;;51.17;24.40;;;;;;;1.90;80.45;100799.34;5000764;28;20990;-55
2021/12/05 15:10:29;;;;;;;50.17;23.75;;;;;;;1.95;80.35;100801.41;5008057;28;20087;-54
2021/12/05 15:12:55;;;;;;;52.10;24.65;;;;;;;1.94;80.29;100808.53;5000419;28;20030;-52
2021/12/05 15:15:23;;;;;;;52.10;25.33;;;;;;;1.96;80.38;100809.16;5000211;28;20402;-56
2021/12/05 15:17:53;;;;;;;51.88;24.60;;;;;;;2.03;80.11;100806.59;4991308;28;20034;-55
2021/12/05 15:20:22;;;;;;;48.05;23.75;;;;;;;2.06;79.72;100817.59;4999149;28;20026;-53
2021/12/05 15:22:53;;;;;;;53.75;24.73;;;;;;;2.09;79.72;100825.13;4998568;28;20029;-54
2021/12/05 15:25:21;;;;;;;52.47;23.92;;;;;;;2.09;79.64;100825.13;4998272;28;20300;-52
2021/12/05 15:27:48;;;;;;;46.13;23.45;;;;;;;2.11;79.52;100833.69;5000938;28;20025;-53
2021/12/05 15:30:21;;;;;;;45.83;23.25;;;;;;;2.11;79.30;100831.03;4999088;28;20033;-54
2021/12/05 15:32:55;;;;;;;50.83;24.90;;;;;;;2.10;79.61;100834.69;5008215;28;20034;-54
2021/12/05 15:35:26;;;;;;;51.13;24.15;;;;;;;2.13;79.64;100834.31;5013037;28;20480;-54
2021/12/05 15:37:57;;;;;;;55.25;24.42;;;;;;;2.15;79.42;100833.31;4994970;28;20046;-55
2021/12/05 15:40:25;;;;;;;52.40;25.30;;;;;;;2.15;79.38;100838.59;4996779;28;20033;-54
2021/12/05 15:42:56;;;;;;;53.20;25.02;;;;;;;2.18;79.37;100841.69;4997754;28;20057;-53
2021/12/05 15:45:22;;;;;;;52.00;25.88;;;;;;;2.17;79.27;100841.88;4998797;28;20026;-56
2021/12/05 15:47:49;;;;;;;48.17;25.50;;;;;;;2.17;79.32;100850.63;4997383;28;20391;-55
2021/12/05 15:50:23;;;;;;;53.13;25.27;;;;;;;2.19;79.32;100853.91;4996682;28;20022;-54
2021/12/05 15:52:54;;;;;;;53.72;25.55;;;;;;;2.17;79.18;100863.84;4996796;28;20030;-55
2021/12/05 15:55:25;;;;;;;53.55;25.60;;;;;;;2.16;79.26;100864.84;5011923;28;20026;-55
2021/12/05 15:58:18;;;;;;;53.05;26.08;;;;;;;2.16;79.22;100871.97;4999825;28;20081;-54
2021/12/05 16:00:47;;;;;;;53.90;25.85;;;;;;;2.18;79.29;100867.31;4995324;28;20034;-53
2021/12/05 16:03:16;;;;;;;51.00;25.02;;;;;;;2.21;79.43;100877.50;4993210;28;20041;-54
2021/12/05 16:05:45;;;;;;;52.30;23.35;;;;;;;2.22;79.31;100884.41;4998559;28;20035;-52
2021/12/05 16:08:14;;;;;;;51.88;24.10;;;;;;;2.25;79.18;100889.31;4998844;28;20030;-55
2021/12/05 16:10:44;;;;;;;43.00;21.90;;;;;;;2.25;79.07;100891.97;5008820;28;20057;-52
2021/12/05 16:13:14;;;;;;;52.45;24.67;;;;;;;2.23;79.21;100893.97;4994651;28;20038;-56
2021/12/05 16:15:41;;;;;;;51.42;25.63;;;;;;;2.24;79.19;100895.63;5016141;28;20026;-53
2021/12/05 16:18:07;;;;;;;49.53;23.73;;;;;;;2.24;79.32;100890.34;5001018;28;20030;-54
2021/12/05 16:20:45;;;;;;;58.25;25.48;;;;;;;2.20;79.35;100897.00;4998299;28;20885;-53
2021/12/05 16:23:15;;;;;;;53.67;25.13;;;;;;;2.19;79.08;100885.63;4993248;28;20487;-53
2021/12/05 16:26:04;;;;;;;54.03;25.95;;;;;;;2.19;79.05;100893.56;5007492;28;20495;-53
2021/12/05 16:28:55;;;;;;;50.30;24.35;;;;;;;2.22;79.26;100897.63;5007940;28;20124;-54
2021/12/05 16:31:31;;;;;;;54.00;25.00;;;;;;;2.23;79.22;100900.09;4994288;28;20423;-53
2021/12/05 16:34:03;;;;;;;47.50;22.73;;;;;;;2.22;79.33;100908.22;4995010;28;20490;-55
2021/12/05 16:36:31;;;;;;;49.78;23.63;;;;;;;2.22;79.24;100903.75;4993663;28;20042;-53
2021/12/05 16:39:08;;;;;;;51.53;24.02;;;;;;;2.20;79.22;100904.94;4998279;28;20029;-52
2021/12/05 16:41:34;;;;;;;52.60;25.77;;;;;;;2.21;79.21;100906.56;4995591;28;20068;-52
2021/12/05 16:44:13;;;;;;;48.55;25.02;;;;;;;2.12;79.64;100909.31;4994680;28;20487;-53
2021/12/05 16:46:50;;;;;;;59.42;27.63;;;;;;;2.06;79.84;100909.28;4992585;28;20496;-52
2021/12/05 16:49:23;;;;;;;52.67;26.95;;;;;;;2.09;79.73;100907.06;5006744;28;20706;-54
2021/12/05 16:52:20;;;;;;;56.67;27.25;;;;;;;2.06;79.84;100906.63;4991723;28;20022;-54
2021/12/05 16:54:50;;;;;;;54.28;25.95;;;;;;;2.09;79.80;100909.72;4994817;28;20072;-54
2021/12/05 16:57:23;;;;;;;53.88;26.70;;;;;;;2.12;79.98;100904.03;4998186;28;20119;-54
2021/12/05 16:59:56;;;;;;;54.38;26.42;;;;;;;2.17;79.73;100911.44;5000124;28;20386;-55
2021/12/05 17:02:32;;;;;;;57.30;27.20;;;;;;;2.20;79.61;100910.22;4996441;28;20022;-55
2021/12/05 17:05:00;;;;;;;54.55;25.45;;;;;;;2.23;79.61;100909.84;5013313;28;20475;-53
2021/12/05 17:07:42;;;;;;;56.13;26.45;;;;;;;2.22;79.44;100913.50;4996590;28;20412;-55
2021/12/05 17:10:25;;;;;;;60.88;27.80;;;;;;;2.24;79.26;100911.47;4997933;28;20157;-55